Time;durP1;ratioP1;P1;durP2;ratioP2;P2;SDS_P1;SDS_P2;PMS_P1;PMS_P2;Temp;Humidity;BMP_temperature;BMP_pressure;BME280_temperature;BME280_humidity;BME280_pressure;Samples;Min_cycle;Max_cycle;Signal;HPM_P1;HPM_P2
2020/12/08 00:00:23;;;;;;;22.48;8.38;;;;;;;-7.60;81.25;100525.45;1829770;78;23515;-72
2020/12/08 00:02:51;;;;;;;20.48;8.15;;;;;;;-7.59;80.86;100532.45;1829732;78;21561;-71
2020/12/08 00:05:20;;;;;;;21.00;8.28;;;;;;;-7.58;80.78;100518.11;1829744;78;20986;-72
2020/12/08 00:07:48;;;;;;;18.35;8.28;;;;;;;-7.57;81.45;100524.61;1829794;78;21117;-73
2020/12/08 00:10:19;;;;;;;21.52;8.35;;;;;;;-7.55;80.85;100524.43;1829695;78;20939;-73
2020/12/08 00:12:50;;;;;;;21.90;8.68;;;;;;;-7.56;80.82;100529.44;1830081;78;21428;-74
2020/12/08 00:15:18;;;;;;;18.10;6.40;;;;;;;-7.55;81.26;100528.43;1829423;78;21022;-74
2020/12/08 00:17:47;;;;;;;19.90;7.33;;;;;;;-7.55;80.72;100532.43;1829757;78;20928;-74
2020/12/08 00:20:17;;;;;;;23.67;9.00;;;;;;;-7.58;80.85;100534.95;1829759;78;20915;-73
2020/12/08 00:22:45;;;;;;;19.57;8.48;;;;;;;-7.58;81.06;100535.45;1829855;78;21082;-73
2020/12/08 00:25:13;;;;;;;23.62;8.93;;;;;;;-7.55;81.12;100536.44;1829787;78;21411;-73
2020/12/08 00:27:41;;;;;;;18.80;7.28;;;;;;;-7.56;81.06;100536.94;1829712;78;21011;-73
2020/12/08 00:30:12;;;;;;;18.55;7.80;;;;;;;-7.54;81.11;100525.59;1829759;77;21527;-74
2020/12/08 00:32:40;;;;;;;23.22;9.30;;;;;;;-7.52;81.38;100526.25;1829756;78;20994;-74
2020/12/08 00:35:11;;;;;;;23.65;8.80;;;;;;;-7.50;81.25;100525.53;1829764;78;21172;-75
2020/12/08 00:37:43;;;;;;;17.65;6.25;;;;;;;-7.48;81.19;100528.86;1829871;78;22097;-74
2020/12/08 00:40:11;;;;;;;26.33;8.60;;;;;;;-7.48;81.29;100513.36;1829746;78;20990;-74
2020/12/08 00:42:43;;;;;;;22.32;8.40;;;;;;;-7.49;80.91;100514.37;1829737;78;21524;-74
2020/12/08 00:45:11;;;;;;;22.42;8.00;;;;;;;-7.53;80.76;100518.42;1829878;78;21105;-73
2020/12/08 00:47:39;;;;;;;22.80;9.03;;;;;;;-7.54;81.75;100516.25;1829767;78;21114;-74
2020/12/08 00:50:07;;;;;;;22.10;8.85;;;;;;;-7.52;81.50;100520.08;1828620;78;21489;-74
2020/12/08 00:52:34;;;;;;;24.23;10.60;;;;;;;-7.52;81.50;100516.91;1826502;78;20971;-71
2020/12/08 00:55:05;;;;;;;25.70;8.25;;;;;;;-7.52;81.53;100514.75;1826152;78;20888;-72
2020/12/08 00:57:33;;;;;;;28.32;10.80;;;;;;;-7.54;81.88;100511.42;1826524;78;20931;-72
2020/12/08 01:00:02;;;;;;;25.35;10.18;;;;;;;-7.54;82.04;100505.59;1826603;78;20991;-73
2020/12/08 01:02:29;;;;;;;29.30;10.85;;;;;;;-7.52;82.66;100519.58;1826530;78;21631;-72
2020/12/08 01:04:58;;;;;;;30.62;11.73;;;;;;;-7.51;82.57;100512.41;1826474;78;21053;-73
2020/12/08 01:07:26;;;;;;;26.52;10.00;;;;;;;-7.51;82.43;100506.54;1795035;78;21062;-73
2020/12/08 01:09:54;;;;;;;31.93;12.78;;;;;;;-7.51;82.35;100507.87;1794457;78;20939;-73
2020/12/08 01:12:22;;;;;;;22.05;8.88;;;;;;;-7.52;82.47;100518.75;1826550;78;21070;-73
2020/12/08 01:14:49;;;;;;;25.60;9.53;;;;;;;-7.57;82.31;100513.94;1826523;78;22098;-73
2020/12/08 01:17:17;;;;;;;29.98;10.38;;;;;;;-7.60;82.43;100516.13;1826636;78;21046;-73
2020/12/08 01:19:45;;;;;;;34.23;10.88;;;;;;;-7.63;82.95;100514.63;1826532;78;21481;-73
2020/12/08 01:22:15;;;;;;;32.88;11.25;;;;;;;-7.63;82.90;100521.80;1826557;78;20920;-73
2020/12/08 01:24:44;;;;;;;27.42;11.35;;;;;;;-7.68;83.07;100515.16;1826572;78;20923;-73
2020/12/08 01:27:11;;;;;;;27.77;11.03;;;;;;;-7.68;83.76;100523.16;1826510;78;21197;-73
2020/12/08 01:29:39;;;;;;;28.83;12.00;;;;;;;-7.70;83.32;100522.50;1826419;77;21022;-73
2020/12/08 01:32:07;;;;;;;30.72;11.08;;;;;;;-7.71;83.25;100527.50;1826531;78;21157;-73
2020/12/08 01:34:37;;;;;;;31.60;11.95;;;;;;;-7.75;83.57;100520.86;1826467;78;20916;-73
2020/12/08 01:37:06;;;;;;;29.48;11.08;;;;;;;-7.73;84.09;100526.84;1826852;78;21478;-73
2020/12/08 01:39:34;;;;;;;26.07;11.65;;;;;;;-7.72;83.95;100525.84;1826697;78;21474;-73
2020/12/08 01:42:02;;;;;;;28.02;11.25;;;;;;;-7.70;84.20;100527.00;1826607;78;20990;-73
2020/12/08 01:44:31;;;;;;;30.85;11.93;;;;;;;-7.68;84.34;100516.48;1826744;78;20951;-73
2020/12/08 01:47:00;;;;;;;23.50;10.28;;;;;;;-7.68;84.06;100516.99;1826658;78;21137;-73
2020/12/08 01:49:29;;;;;;;32.08;11.38;;;;;;;-7.71;83.95;100516.84;1826690;78;20992;-73
2020/12/08 01:51:56;;;;;;;31.17;11.33;;;;;;;-7.70;84.39;100512.34;1829418;78;23581;-71
2020/12/08 01:54:25;;;;;;;29.98;11.80;;;;;;;-7.71;84.06;100527.50;1799810;78;20963;-71
2020/12/08 01:56:53;;;;;;;29.42;9.50;;;;;;;-7.73;84.02;100522.84;1829858;78;21066;-71
2020/12/08 01:59:21;;;;;;;29.23;12.45;;;;;;;-7.75;84.38;100515.52;1829861;78;20994;-71
2020/12/08 02:01:51;;;;;;;39.78;12.88;;;;;;;-7.75;84.32;100514.69;1826958;78;21121;-71
2020/12/08 02:04:19;;;;;;;30.70;12.82;;;;;;;-7.77;84.26;100504.20;1829856;78;21553;-70
2020/12/08 02:06:47;;;;;;;28.17;10.72;;;;;;;-7.76;84.28;100505.86;1829803;78;20943;-70
2020/12/08 02:09:15;;;;;;;35.55;12.53;;;;;;;-7.77;84.29;100517.53;1829831;78;21065;-72
2020/12/08 02:11:43;;;;;;;34.23;11.93;;;;;;;-7.77;84.34;100511.37;1829820;78;21042;-72
2020/12/08 02:14:11;;;;;;;27.87;8.98;;;;;;;-7.76;84.57;100518.36;1829882;78;20976;-70
2020/12/08 02:16:39;;;;;;;28.85;11.63;;;;;;;-7.75;84.89;100517.36;1829844;78;21358;-70
2020/12/08 02:19:08;;;;;;;25.37;9.70;;;;;;;-7.74;84.48;100519.85;1829812;78;21153;-70
2020/12/08 02:21:37;;;;;;;29.27;11.53;;;;;;;-7.77;84.18;100514.86;1829817;78;21045;-69
2020/12/08 02:24:17;;;;;;;27.25;9.15;;;;;;;-7.73;84.74;100510.84;1873675;76;23347;-70
2020/12/08 02:26:45;;;;;;;30.40;11.90;;;;;;;-7.76;84.67;100503.70;1841724;78;20905;-71
2020/12/08 02:29:14;;;;;;;33.15;10.90;;;;;;;-7.75;84.58;100503.52;1841679;78;21353;-69
2020/12/08 02:31:43;;;;;;;28.98;11.28;;;;;;;-7.71;85.02;100505.34;1812028;78;20940;-72
2020/12/08 02:34:12;;;;;;;32.85;10.63;;;;;;;-7.71;84.75;100507.51;1808396;79;21558;-73
2020/12/08 02:36:40;;;;;;;27.07;8.98;;;;;;;-7.72;84.40;100512.51;1808609;79;21129;-71
2020/12/08 02:39:07;;;;;;;33.10;11.68;;;;;;;-7.77;84.39;100496.20;1808590;79;21625;-71
2020/12/08 02:41:36;;;;;;;33.23;12.37;;;;;;;-7.81;84.57;100500.72;1808746;79;21374;-71
2020/12/08 02:44:05;;;;;;;29.82;11.22;;;;;;;-7.82;84.78;100515.05;1808504;79;21498;-71
2020/12/08 02:46:34;;;;;;;33.23;11.90;;;;;;;-7.86;85.17;100504.41;1808609;79;20952;-71
2020/12/08 02:49:02;;;;;;;39.05;12.15;;;;;;;-7.86;85.23;100508.41;1808626;79;20932;-70
2020/12/08 02:51:31;;;;;;;33.38;11.15;;;;;;;-7.86;85.24;100509.23;1808645;79;21003;-71
2020/12/08 02:54:01;;;;;;;30.60;11.88;;;;;;;-7.85;85.61;100504.73;1808552;79;21189;-71
2020/12/08 02:56:29;;;;;;;35.50;12.13;;;;;;;-7.84;85.73;100505.06;1808553;79;21573;-71
2020/12/08 02:58:58;;;;;;;30.02;11.95;;;;;;;-7.83;85.45;100504.06;1808570;79;20980;-71
2020/12/08 03:01:27;;;;;;;26.95;9.93;;;;;;;-7.84;85.25;100503.73;1808671;79;21616;-71
2020/12/08 03:03:56;;;;;;;34.78;11.95;;;;;;;-7.84;85.88;100505.90;1808714;79;20932;-70
2020/12/08 03:06:25;;;;;;;44.70;11.63;;;;;;;-7.85;85.34;100504.73;1808614;79;21365;-71
2020/12/08 03:08:54;;;;;;;31.87;10.65;;;;;;;-7.90;85.26;100489.27;1808567;79;21507;-72
2020/12/08 03:11:32;;;;;;;36.83;13.03;;;;;;;-7.91;85.42;100497.43;1808578;79;20881;-72
2020/12/08 03:14:01;;;;;;;32.33;13.00;;;;;;;-7.89;85.77;100496.76;1807850;79;20936;-72
2020/12/08 03:16:29;;;;;;;34.60;10.90;;;;;;;-7.88;85.68;100481.09;1808625;79;20936;-72
2020/12/08 03:18:57;;;;;;;35.70;12.75;;;;;;;-7.86;86.34;100494.58;1808573;79;22337;-72
2020/12/08 03:21:27;;;;;;;29.37;11.30;;;;;;;-7.83;86.25;100501.40;1808567;79;21487;-72
2020/12/08 03:23:55;;;;;;;31.73;12.28;;;;;;;-7.83;85.89;100488.07;1808485;79;21451;-72
2020/12/08 03:26:23;;;;;;;34.23;12.28;;;;;;;-7.82;85.92;100487.06;1808515;79;21799;-72
2020/12/08 03:28:54;;;;;;;33.00;11.68;;;;;;;-7.80;86.31;100494.39;1808625;79;21045;-72
2020/12/08 03:31:22;;;;;;;36.03;11.93;;;;;;;-7.81;85.74;100488.22;1808581;78;22678;-71
2020/12/08 03:33:50;;;;;;;35.17;11.38;;;;;;;-7.83;85.78;100494.23;1808348;79;21823;-71
2020/12/08 03:36:20;;;;;;;35.23;12.05;;;;;;;-7.85;85.95;100492.24;1808005;79;21067;-71
2020/12/08 03:38:48;;;;;;;33.95;11.43;;;;;;;-7.86;85.76;100491.08;1808010;79;21613;-71
2020/12/08 03:41:23;;;;;;;36.80;11.00;;;;;;;-7.87;85.81;100488.09;1808041;79;20939;-71
2020/12/08 03:43:52;;;;;;;35.68;12.60;;;;;;;-7.87;86.43;100486.25;1808003;79;22323;-74
2020/12/08 03:46:22;;;;;;;35.65;12.60;;;;;;;-7.88;86.11;100489.09;1807944;79;20980;-75
2020/12/08 03:48:50;;;;;;;33.95;12.13;;;;;;;-7.94;86.05;100489.78;1808061;79;21495;-74
2020/12/08 03:51:20;;;;;;;29.67;10.13;;;;;;;-7.97;86.63;100480.80;1778804;79;21163;-72
2020/12/08 03:53:48;;;;;;;35.20;13.22;;;;;;;-7.97;86.76;100483.47;1808112;78;21215;-73
2020/12/08 03:56:18;;;;;;;26.82;10.93;;;;;;;-8.00;86.66;100481.47;1807986;79;22404;-73
2020/12/08 03:58:48;;;;;;;37.23;12.65;;;;;;;-7.99;86.73;100479.14;1807837;78;21035;-73
2020/12/08 04:01:21;;;;;;;37.03;13.62;;;;;;;-7.97;87.24;100479.47;1807996;79;20920;-74
2020/12/08 04:03:50;;;;;;;35.40;11.83;;;;;;;-7.94;87.05;100479.12;1807939;79;21007;-71
2020/12/08 04:06:19;;;;;;;31.48;11.20;;;;;;;-7.90;87.13;100469.77;1808015;78;20936;-72
2020/12/08 04:08:47;;;;;;;39.25;11.63;;;;;;;-7.88;86.81;100469.94;1807972;79;21352;-73
2020/12/08 04:11:16;;;;;;;37.50;12.37;;;;;;;-7.93;86.43;100469.62;1807868;79;21086;-75
2020/12/08 04:13:45;;;;;;;32.00;11.30;;;;;;;-7.97;86.48;100470.14;1807987;78;20920;-74
2020/12/08 04:16:14;;;;;;;46.88;14.18;;;;;;;-7.96;86.88;100463.81;1807940;79;20932;-75
2020/12/08 04:18:42;;;;;;;38.75;12.85;;;;;;;-7.95;86.82;100468.13;1808014;79;21491;-74
2020/12/08 04:21:10;;;;;;;35.15;11.70;;;;;;;-7.92;86.96;100468.62;1782921;79;22785;-74
2020/12/08 04:23:38;;;;;;;43.25;11.78;;;;;;;-7.87;87.19;100469.43;1807731;79;20995;-74
2020/12/08 04:26:10;;;;;;;30.05;11.83;;;;;;;-7.87;86.94;100466.27;1807918;79;21011;-72
2020/12/08 04:28:39;;;;;;;;;;;;;;;-7.89;86.67;100481.59;1810619;79;20996;-72
2020/12/08 04:31:18;;;;;;;34.27;12.25;;;;;;;-7.87;87.39;100481.42;1779119;79;20181;-73
2020/12/08 04:33:46;;;;;;;41.68;11.80;;;;;;;-7.86;87.20;100473.75;1808013;79;21627;-74
2020/12/08 04:36:15;;;;;;;49.40;15.83;;;;;;;-7.88;86.79;100465.10;1807888;79;20943;-72
2020/12/08 04:38:43;;;;;;;34.18;10.98;;;;;;;-7.87;87.60;100473.42;1807960;79;20944;-72
2020/12/08 04:41:12;;;;;;;40.10;13.32;;;;;;;-7.85;87.32;100462.09;1807991;79;20984;-71
2020/12/08 04:43:40;;;;;;;51.18;15.95;;;;;;;-7.86;86.71;100461.77;1807855;78;20968;-71
2020/12/08 04:46:10;;;;;;;45.73;15.23;;;;;;;-7.94;86.67;100459.97;1805292;79;21138;-72
2020/12/08 04:48:38;;;;;;;49.58;15.70;;;;;;;-7.95;87.08;100460.14;1725594;82;21052;-74
2020/12/08 04:51:06;;;;;;;44.30;15.03;;;;;;;-7.91;87.25;100458.28;1701035;82;20988;-74
2020/12/08 04:53:35;;;;;;;43.98;14.60;;;;;;;-7.89;87.19;100455.45;1735040;81;21502;-74
2020/12/08 04:56:03;;;;;;;43.13;14.83;;;;;;;-7.91;87.14;100450.29;1705100;82;20933;-73
2020/12/08 04:58:31;;;;;;;38.45;12.95;;;;;;;-7.91;87.19;100450.79;1708677;82;21217;-73
2020/12/08 05:00:59;;;;;;;40.58;13.22;;;;;;;-7.92;87.29;100451.30;1697378;84;21044;-73
2020/12/08 05:03:29;;;;;;;37.58;13.00;;;;;;;-7.91;87.46;100453.45;1705165;84;21067;-73
2020/12/08 05:05:57;;;;;;;43.23;13.80;;;;;;;-7.91;87.39;100449.46;1705185;84;21082;-72
2020/12/08 05:08:26;;;;;;;36.93;12.60;;;;;;;-7.90;87.37;100463.11;1705212;84;21515;-72
2020/12/08 05:10:53;;;;;;;43.40;12.37;;;;;;;-7.92;87.76;100455.29;1705228;84;21209;-72
2020/12/08 05:13:26;;;;;;;37.17;12.90;;;;;;;-7.94;87.83;100446.64;1705249;84;21023;-72
2020/12/08 05:16:07;;;;;;;35.40;13.22;;;;;;;-7.91;87.59;100446.80;1705246;84;20963;-71
2020/12/08 05:18:36;;;;;;;39.78;12.78;;;;;;;-7.93;87.47;100448.80;1705036;84;20964;-73
2020/12/08 05:21:10;;;;;;;41.73;14.53;;;;;;;-7.94;87.87;100449.30;1705232;84;20940;-71
2020/12/08 05:23:43;;;;;;;43.02;13.43;;;;;;;-7.95;87.54;100460.14;1705007;83;21224;-71
2020/12/08 05:26:16;;;;;;;37.33;13.28;;;;;;;-7.99;87.76;100463.15;1704609;84;21604;-71
2020/12/08 05:28:44;;;;;;;41.13;14.73;;;;;;;-7.96;87.87;100457.14;1705238;84;21502;-71
2020/12/08 05:31:11;;;;;;;36.50;12.70;;;;;;;-7.96;87.75;100455.31;1705088;83;21015;-71
2020/12/08 05:33:39;;;;;;;37.93;11.90;;;;;;;-7.98;87.64;100454.66;1705180;84;21032;-72
2020/12/08 05:36:07;;;;;;;42.90;12.88;;;;;;;-7.96;88.09;100457.14;1705197;84;21321;-71
2020/12/08 05:38:38;;;;;;;36.33;13.40;;;;;;;-7.93;88.14;100460.30;1705217;84;21530;-72
2020/12/08 05:41:07;;;;;;;43.73;13.30;;;;;;;-7.86;88.19;100461.77;1705444;84;20938;-73
2020/12/08 05:43:41;;;;;;;53.60;15.72;;;;;;;-7.81;88.25;100462.07;1705105;84;20972;-73
2020/12/08 05:46:11;;;;;;;44.23;15.75;;;;;;;-7.80;88.12;100456.56;1705297;84;21550;-73
2020/12/08 05:48:38;;;;;;;44.60;15.93;;;;;;;-7.80;87.88;100456.56;1705179;84;21445;-75
2020/12/08 05:51:07;;;;;;;34.27;13.32;;;;;;;-7.80;88.14;100475.73;1705243;84;21094;-74
2020/12/08 05:53:35;;;;;;;41.70;13.45;;;;;;;-7.80;87.82;100469.89;1705173;84;20952;-72
2020/12/08 05:56:08;;;;;;;37.63;13.88;;;;;;;-7.80;87.84;100475.73;1705128;84;20924;-72
2020/12/08 05:58:36;;;;;;;35.40;11.83;;;;;;;-7.81;88.02;100479.40;1705239;84;20952;-71
2020/12/08 06:01:05;;;;;;;40.12;14.87;;;;;;;-7.84;88.05;100481.91;1705169;84;23530;-71
2020/12/08 06:03:34;;;;;;;39.30;13.20;;;;;;;-7.85;87.96;100480.75;1705087;84;20924;-71
2020/12/08 06:06:09;;;;;;;42.35;14.18;;;;;;;-7.85;88.08;100486.08;1705177;84;21007;-72
2020/12/08 06:08:45;;;;;;;43.73;13.95;;;;;;;-7.84;88.18;100493.08;1705150;84;20968;-70
2020/12/08 06:11:15;;;;;;;47.33;14.87;;;;;;;-7.86;88.16;100493.25;1705203;84;21058;-72
2020/12/08 06:13:47;;;;;;;35.92;13.68;;;;;;;-7.86;88.39;100493.75;1705269;84;22280;-71
2020/12/08 06:16:20;;;;;;;;;;;;;;;-7.86;88.54;100495.08;1745306;80;21520;-73
2020/12/08 06:18:48;;;;;;;36.40;13.40;;;;;;;-7.87;88.58;100500.91;1748231;82;20561;-69
2020/12/08 06:21:23;;;;;;;42.85;13.68;;;;;;;-7.93;88.54;100500.27;1748893;80;21044;-75
2020/12/08 06:23:52;;;;;;;36.13;12.10;;;;;;;-7.96;89.03;100498.45;1752175;81;20981;-74
2020/12/08 06:26:28;;;;;;;41.95;13.22;;;;;;;-7.97;89.10;100503.45;1759625;81;21376;-74
2020/12/08 06:28:55;;;;;;;40.55;12.47;;;;;;;-7.98;89.36;100509.28;1759570;81;21040;-70
2020/12/08 06:31:24;;;;;;;43.02;13.80;;;;;;;-7.95;89.87;100504.94;1759293;81;20949;-80
2020/12/08 06:33:56;;;;;;;48.15;12.88;;;;;;;-7.94;89.68;100511.94;1759434;81;21095;-79
2020/12/08 06:36:25;;;;;;;36.17;12.23;;;;;;;-7.92;89.82;100505.93;1759766;81;21047;-78
2020/12/08 06:39:07;;;;;;;33.00;11.90;;;;;;;-7.88;90.00;100499.75;1759032;81;21211;-79
2020/12/08 06:41:39;;;;;;;35.30;13.00;;;;;;;-7.88;89.72;100506.42;1759687;81;20909;-79
2020/12/08 06:44:20;;;;;;;29.72;10.75;;;;;;;-7.88;89.58;100506.42;1759846;81;20933;-78
2020/12/08 06:46:55;;;;;;;33.28;12.07;;;;;;;-7.90;89.33;100506.59;1759118;80;21613;-79
2020/12/08 06:49:26;;;;;;;36.25;11.95;;;;;;;-7.90;89.66;100506.59;1762809;78;21075;-79
2020/12/08 06:51:55;;;;;;;39.92;13.90;;;;;;;-7.90;89.51;100510.59;1760606;81;21416;-79
2020/12/08 06:54:24;;;;;;;33.33;12.15;;;;;;;-7.89;89.72;100508.75;1763116;78;20953;-80
2020/12/08 06:57:00;;;;;;;35.13;12.68;;;;;;;-7.87;90.06;100511.58;1762511;78;20970;-76
2020/12/08 06:59:28;;;;;;;37.23;13.28;;;;;;;-7.85;89.78;100513.56;1762468;76;21273;-74
2020/12/08 07:01:57;;;;;;;41.77;14.45;;;;;;;-7.86;89.90;100506.57;1762209;78;20983;-72
2020/12/08 07:04:27;;;;;;;39.65;12.30;;;;;;;-7.81;90.20;100508.72;1762237;78;21789;-72
2020/12/08 07:07:00;;;;;;;34.40;9.45;;;;;;;-7.82;89.27;100510.55;1762156;78;21008;-74
2020/12/08 07:09:33;;;;;;;34.38;12.75;;;;;;;-7.81;89.47;100503.39;1762867;78;21024;-72
2020/12/08 07:12:04;;;;;;;42.80;12.03;;;;;;;-7.78;89.68;100511.04;1763162;81;20989;-79
2020/12/08 07:14:36;;;;;;;35.05;12.47;;;;;;;-7.76;89.38;100510.36;1762461;76;21107;-84
2020/12/08 07:17:04;;;;;;;34.25;11.53;;;;;;;-7.75;89.19;100502.69;1762234;78;21735;-78
2020/12/08 07:19:32;;;;;;;33.28;10.88;;;;;;;-7.74;89.56;100503.02;1763353;78;20878;-78
2020/12/08 07:22:01;;;;;;;28.38;11.18;;;;;;;-7.74;89.62;100504.36;1761965;78;21174;-78
2020/12/08 07:24:30;;;;;;;40.38;11.53;;;;;;;-7.74;89.47;100495.86;1771380;76;21294;-83
2020/12/08 07:26:59;;;;;;;31.35;11.97;;;;;;;-7.71;89.80;100501.34;1739493;78;21009;-84
2020/12/08 07:29:27;;;;;;;36.35;13.25;;;;;;;-7.65;89.93;100507.31;1727219;78;21762;-78
2020/12/08 07:31:54;;;;;;;28.45;11.80;;;;;;;-7.60;89.63;100502.28;1726011;81;21103;-79
2020/12/08 07:34:24;;;;;;;32.42;12.10;;;;;;;-7.58;89.59;100495.45;1750206;81;20970;-78
2020/12/08 07:36:51;;;;;;;33.30;12.07;;;;;;;-7.55;89.58;100507.09;1740644;81;21152;-77
2020/12/08 07:39:20;;;;;;;31.05;11.22;;;;;;;-7.53;89.52;100511.25;1759006;81;21119;-77
2020/12/08 07:41:47;;;;;;;26.40;11.65;;;;;;;-7.51;89.37;100507.08;1759802;81;21340;-77
2020/12/08 07:47:01;;;;;;;32.98;11.25;;;;;;;-7.39;88.83;100505.14;1890167;75;22790;-77
2020/12/08 07:49:34;;;;;;;25.77;11.73;;;;;;;-7.44;88.27;100506.67;1861087;77;20983;-77
2020/12/08 07:52:02;;;;;;;34.48;13.55;;;;;;;-7.45;88.80;100509.84;1856921;77;22266;-77
2020/12/08 07:54:29;;;;;;;27.93;11.63;;;;;;;-7.41;89.54;100503.15;1846996;77;20975;-81
2020/12/08 07:56:57;;;;;;;28.47;11.85;;;;;;;-7.33;89.49;100506.27;1827614;78;20982;-80
2020/12/08 07:59:24;;;;;;;37.80;12.93;;;;;;;-7.27;89.93;100513.57;1827321;78;20955;-75
2020/12/08 08:01:52;;;;;;;32.67;10.38;;;;;;;-7.19;90.01;100498.84;1827343;78;20927;-76
2020/12/08 08:04:19;;;;;;;31.37;12.53;;;;;;;-7.12;89.21;100504.30;1827420;78;21525;-75
2020/12/08 08:06:47;;;;;;;28.27;10.90;;;;;;;-7.01;89.55;100494.54;1827306;78;21540;-74
2020/12/08 08:09:15;;;;;;;34.75;14.15;;;;;;;-6.83;89.74;100497.70;1795444;78;21074;-74
2020/12/08 08:11:43;;;;;;;34.23;12.23;;;;;;;-6.72;88.88;100495.94;1827357;78;21497;-78
2020/12/08 08:14:11;;;;;;;34.15;11.03;;;;;;;-6.68;88.18;100481.72;1827408;78;21466;-74
2020/12/08 08:16:38;;;;;;;28.30;10.20;;;;;;;-6.66;86.60;100490.38;1827277;78;21358;-74
2020/12/08 08:19:06;;;;;;;31.97;11.28;;;;;;;-6.70;85.07;100493.09;1827278;78;21031;-76
2020/12/08 08:21:34;;;;;;;28.90;11.28;;;;;;;-6.80;83.95;100494.67;1827254;78;20880;-77
2020/12/08 08:24:01;;;;;;;38.30;12.85;;;;;;;-6.84;83.96;100488.54;1827369;78;20935;-81
2020/12/08 08:26:29;;;;;;;31.40;12.28;;;;;;;-6.87;83.29;100493.73;1826471;78;21504;-78
2020/12/08 08:28:57;;;;;;;27.00;10.85;;;;;;;-6.83;83.83;100491.02;1827074;78;21202;-76
2020/12/08 08:31:24;;;;;;;35.38;13.25;;;;;;;-6.76;83.20;100481.80;1841703;77;21472;-73
2020/12/08 08:33:54;;;;;;;24.57;9.85;;;;;;;-6.72;82.61;100485.77;1847210;77;21067;-82
2020/12/08 08:36:23;;;;;;;31.57;10.30;;;;;;;-6.69;80.96;100486.73;1847254;77;20908;-82
2020/12/08 08:38:50;;;;;;;28.83;11.25;;;;;;;-6.68;80.95;100479.88;1847212;77;20998;-80
2020/12/08 08:41:18;;;;;;;29.95;10.88;;;;;;;-6.70;80.51;100481.90;1847191;77;21589;-78
2020/12/08 08:43:46;;;;;;;32.93;11.85;;;;;;;-6.73;79.64;100478.77;1847265;77;21155;-79
2020/12/08 08:46:15;;;;;;;26.02;11.03;;;;;;;-6.74;79.92;100490.45;1847030;77;20918;-74
2020/12/08 08:48:42;;;;;;;23.20;9.90;;;;;;;-6.78;80.22;100481.97;1847260;77;20958;-78
2020/12/08 08:51:10;;;;;;;31.27;9.63;;;;;;;-6.80;79.81;100489.84;1847225;77;22223;-79
2020/12/08 08:53:38;;;;;;;23.67;9.80;;;;;;;-6.85;80.12;100486.38;1847237;77;21151;-82
2020/12/08 08:56:06;;;;;;;27.87;10.85;;;;;;;-6.85;80.35;100490.88;1847059;77;21053;-75
2020/12/08 08:58:34;;;;;;;28.12;9.93;;;;;;;-6.82;80.67;100483.34;1846672;77;21457;-74
2020/12/08 09:01:02;;;;;;;29.20;9.10;;;;;;;-6.79;80.33;100476.30;1846580;77;20907;-74
2020/12/08 09:03:29;;;;;;;29.80;10.95;;;;;;;-6.78;80.94;100480.64;1846824;77;20993;-75
2020/12/08 09:05:57;;;;;;;26.68;10.72;;;;;;;-6.82;80.34;100478.00;1846667;77;21726;-82
2020/12/08 09:08:24;;;;;;;28.65;10.05;;;;;;;-6.87;81.01;100482.22;1846746;77;21473;-84
2020/12/08 09:10:54;;;;;;;27.67;10.40;;;;;;;-6.92;82.04;100465.41;1846696;77;20942;-83
2020/12/08 09:13:22;;;;;;;22.22;9.00;;;;;;;-6.92;82.19;100468.58;1846658;77;21460;-74
2020/12/08 09:15:49;;;;;;;24.60;11.00;;;;;;;-6.95;82.54;100476.48;1846692;77;20986;-83
2020/12/08 09:18:17;;;;;;;28.20;9.85;;;;;;;-6.93;83.97;100470.42;1846579;77;21380;-79
2020/12/08 09:20:45;;;;;;;26.93;10.35;;;;;;;-6.87;83.92;100473.70;1846533;77;20938;-76
2020/12/08 09:23:13;;;;;;;27.90;10.78;;;;;;;-6.85;84.43;100470.35;1846617;77;20907;-76
2020/12/08 09:25:40;;;;;;;27.02;10.18;;;;;;;-6.79;84.91;100469.62;1846489;77;20966;-81
2020/12/08 09:28:08;;;;;;;24.18;10.23;;;;;;;-6.73;84.82;100462.23;1846605;77;20978;-80
2020/12/08 09:30:35;;;;;;;26.73;9.20;;;;;;;-6.70;83.72;100467.21;1846522;77;21344;-76
2020/12/08 09:33:03;;;;;;;24.43;9.65;;;;;;;-6.68;82.86;100457.17;1846402;77;21600;-74
2020/12/08 09:35:30;;;;;;;27.27;10.80;;;;;;;-6.70;82.60;100467.21;1846702;77;21501;-74
2020/12/08 09:37:58;;;;;;;25.23;9.73;;;;;;;-6.67;82.57;100467.36;1846591;77;20962;-74
2020/12/08 09:40:25;;;;;;;24.85;9.10;;;;;;;-6.65;81.23;100476.02;1846624;77;20906;-75
2020/12/08 09:42:53;;;;;;;27.07;10.75;;;;;;;-6.59;81.89;100469.95;1846603;77;21374;-74
2020/12/08 09:45:22;;;;;;;30.82;11.50;;;;;;;-6.46;81.14;100458.13;1846380;77;21183;-72
2020/12/08 09:47:49;;;;;;;31.50;10.18;;;;;;;-6.28;80.65;100462.25;1846645;77;20966;-76
2020/12/08 09:50:16;;;;;;;33.83;10.48;;;;;;;-6.15;80.17;100465.94;1846560;77;21608;-78
2020/12/08 09:52:44;;;;;;;26.93;9.80;;;;;;;-6.06;79.78;100462.16;1846703;77;21521;-76
2020/12/08 09:55:12;;;;;;;27.40;10.20;;;;;;;-5.97;78.70;100460.22;1846615;77;21188;-77
2020/12/08 09:57:39;;;;;;;25.62;8.33;;;;;;;-5.97;77.44;100452.20;1846506;77;21572;-77
2020/12/08 10:00:07;;;;;;;26.93;9.30;;;;;;;-6.10;76.93;100450.17;1846280;77;21021;-77
2020/12/08 10:02:35;;;;;;;26.45;9.88;;;;;;;-6.23;77.59;100450.00;1845726;77;21053;-77
2020/12/08 10:05:03;;;;;;;23.65;9.23;;;;;;;-6.30;77.95;100450.92;1852296;76;21442;-78
2020/12/08 10:07:31;;;;;;;24.98;9.50;;;;;;;-6.33;78.69;100444.93;1849116;76;21682;-77
2020/12/08 10:10:00;;;;;;;26.25;9.53;;;;;;;-6.32;78.00;100445.76;1854706;76;21584;-76
2020/12/08 10:12:30;;;;;;;21.57;10.05;;;;;;;-6.33;78.19;100452.12;1857666;77;20939;-77
2020/12/08 10:14:58;;;;;;;24.52;9.73;;;;;;;-6.37;78.29;100446.84;1860609;76;20927;-77
2020/12/08 10:17:27;;;;;;;20.62;8.88;;;;;;;-6.38;78.50;100436.67;1860660;77;20899;-75
2020/12/08 10:19:55;;;;;;;27.62;9.30;;;;;;;-6.44;78.20;100431.23;1860681;77;21360;-75
2020/12/08 10:22:22;;;;;;;26.90;9.85;;;;;;;-6.55;78.93;100438.36;1860601;77;20930;-75
2020/12/08 10:24:50;;;;;;;25.70;8.93;;;;;;;-6.62;79.21;100440.10;1860596;77;20954;-76
2020/12/08 10:27:18;;;;;;;23.27;8.85;;;;;;;-6.62;79.27;100434.26;1860657;77;20922;-75
2020/12/08 10:29:45;;;;;;;30.62;10.60;;;;;;;-6.58;79.69;100426.70;1860563;77;20898;-76
2020/12/08 10:32:13;;;;;;;23.70;9.03;;;;;;;-6.45;81.05;100428.23;1860728;77;22338;-76
2020/12/08 10:34:41;;;;;;;25.02;9.75;;;;;;;-6.34;79.29;100431.75;1860565;77;21061;-77
2020/12/08 10:37:08;;;;;;;22.85;9.05;;;;;;;-6.26;78.86;100433.50;1841697;77;20944;-76
2020/12/08 10:39:36;;;;;;;18.87;8.48;;;;;;;-6.17;79.00;100430.55;1860675;77;21656;-76
2020/12/08 10:42:05;;;;;;;26.00;9.38;;;;;;;-6.08;78.60;100432.11;1860407;76;20922;-76
2020/12/08 10:44:33;;;;;;;25.57;9.98;;;;;;;-6.01;77.61;100426.34;1860618;77;21326;-76
2020/12/08 10:47:00;;;;;;;27.07;8.78;;;;;;;-5.97;78.21;100429.47;1860841;77;21513;-76
2020/12/08 10:49:28;;;;;;;33.60;9.98;;;;;;;-6.01;77.19;100431.69;1861292;77;21525;-76
2020/12/08 10:51:55;;;;;;;28.55;10.80;;;;;;;-6.08;77.75;100424.09;1861136;77;20914;-76
2020/12/08 10:54:22;;;;;;;35.23;11.90;;;;;;;-6.04;78.21;100423.21;1861315;77;21013;-76
2020/12/08 10:56:53;;;;;;;26.80;9.48;;;;;;;-6.02;77.57;100420.67;1861210;76;21435;-76
2020/12/08 10:59:21;;;;;;;23.83;10.18;;;;;;;-5.99;77.17;100430.16;1846866;77;21473;-76
2020/12/08 11:01:50;;;;;;;23.83;8.80;;;;;;;-6.01;76.75;100423.67;1860521;76;21093;-76
2020/12/08 11:04:17;;;;;;;25.08;9.63;;;;;;;-6.02;77.02;100425.19;1861212;77;20943;-76
2020/12/08 11:06:45;;;;;;;22.35;8.58;;;;;;;-6.02;77.20;100418.00;1861192;77;20911;-78
2020/12/08 11:09:14;;;;;;;25.00;10.38;;;;;;;-6.02;76.43;100426.53;1861242;77;21246;-78
2020/12/08 11:11:42;;;;;;;26.25;9.80;;;;;;;-6.04;76.82;100429.89;1861175;77;20907;-78
2020/12/08 11:14:09;;;;;;;31.45;9.23;;;;;;;-6.07;75.92;100426.25;1861201;77;20962;-78
2020/12/08 11:16:36;;;;;;;24.25;10.03;;;;;;;-6.11;75.58;100435.16;1861159;77;21002;-77
2020/12/08 11:19:04;;;;;;;28.15;10.70;;;;;;;-6.16;76.49;100434.88;1861129;77;20895;-77
2020/12/08 11:21:31;;;;;;;25.20;8.73;;;;;;;-6.14;76.90;100434.70;1861250;77;21358;-77